Rechercher aéroport 
image banner adimage banner adimage banner ad
image banner ad

25PS - Primrose

Situé à Minersville, United States

ICAO - 25PS, IATA -

Données fournies par Airmate  

Information générale

Coordonnées: N40°41'21" W76°16'47"
Élévation : 953 feet MSL.
Variation magnétique : -12° East
Voir autres Aéroports à Pennsylvania

Données opérationnelles

Special qualification required
Heure actuelle UTC:
Heure actuelle locale:
METAR: KMUI 291504Z 00000KT 6SM BR SCT010 BKN017 BKN024 23/20 A2996 RMK AO2A SLP146
TAF: TAF AMD KMUI 291435Z 2914/3017 15009KT 8000 -RA BKN010 OVC035 QNH2989INS BECMG 2917/2918 20009KT 9000 -SHRA BKN015 BKN030 QNH2969INS TEMPO 2918/2924 33020G35KT 6000 TSRA OVC025CB BECMG 3000/3001 16006KT 8000 -SHRA SCT020 OVC050 QNH2967INS BECMG 3008/3009 24006KT 9000 BR SCT015 OVC020 QNH2971INS BECMG 3013/3014 30012G20KT 9999 NSW SCT025 QNH2980INS TX27/2920Z TN19/2914Z
Voir NOTAMs / SUP AIP / TFR affectant cet aéroport [VIEW]
Fréquences de communication: [VIEW]

Pistes:

Coordonnées de l'aéroport

Adresse: Minersville United States

Vue satellite de 25PS